createdAt,value
2019-05-11T00:00:12.116Z,17.20
2019-05-11T00:02:43.759Z,16.52
2019-05-11T00:05:15.418Z,14.87
2019-05-11T00:07:47.069Z,10.60
2019-05-11T00:10:18.827Z,9.58
2019-05-11T00:12:50.481Z,11.53
2019-05-11T00:15:22.547Z,12.47
2019-05-11T00:17:54.402Z,11.83
2019-05-11T00:20:25.961Z,9.75
2019-05-11T00:22:57.716Z,10.32
2019-05-11T00:25:29.161Z,12.82
2019-05-11T00:28:00.743Z,12.33
2019-05-11T00:30:32.370Z,8.35
2019-05-11T00:33:04.334Z,18.20
2019-05-11T00:35:35.885Z,15.03
2019-05-11T00:38:07.641Z,15.32
2019-05-11T00:40:39.402Z,13.00
2019-05-11T00:45:41.278Z,10.30
2019-05-11T00:48:12.930Z,12.45
2019-05-11T00:50:44.689Z,12.80
2019-05-11T00:53:16.595Z,19.23
2019-05-11T00:55:48.408Z,15.00
2019-05-11T00:58:21.392Z,17.37
2019-05-11T01:03:24.309Z,20.72
2019-05-11T01:08:26.173Z,19.73
2019-05-11T01:10:57.825Z,21.48
2019-05-11T01:13:30.306Z,20.70
2019-05-11T01:16:02.064Z,27.32
2019-05-11T01:18:34.022Z,21.62
2019-05-11T01:21:05.572Z,19.77
2019-05-11T01:26:09.300Z,12.50
2019-05-11T01:28:41.149Z,17.23
2019-05-11T01:33:43.243Z,18.10
2019-05-11T01:36:14.792Z,13.28
2019-05-11T01:38:46.646Z,22.27
2019-05-11T01:41:18.607Z,11.33
2019-05-11T01:43:50.361Z,12.35
2019-05-11T01:46:22.225Z,16.73
2019-05-11T01:48:53.982Z,16.48
2019-05-11T01:51:25.966Z,10.78
2019-05-11T01:53:57.397Z,12.55
2019-05-11T01:56:29.251Z,11.53
2019-05-11T01:59:01.013Z,13.45
2019-05-11T02:04:03.817Z,12.63
2019-05-11T02:06:35.769Z,25.57
2019-05-11T02:09:07.734Z,12.85
2019-05-11T02:11:39.388Z,16.85
2019-05-11T02:14:11.243Z,16.82
2019-05-11T02:16:43.207Z,18.50
2019-05-11T02:19:14.966Z,20.12
2019-05-11T02:24:16.824Z,15.28
2019-05-11T02:26:48.603Z,27.22
2019-05-11T02:29:20.360Z,14.03
2019-05-11T02:34:22.441Z,13.40
2019-05-11T02:36:53.992Z,17.25
2019-05-11T02:39:25.748Z,14.68
2019-05-11T02:41:58.631Z,13.13
2019-05-11T02:47:00.616Z,15.85
2019-05-11T02:49:32.581Z,18.35
2019-05-11T02:52:04.924Z,19.02
2019-05-11T02:54:37.590Z,27.80
2019-05-11T02:57:08.973Z,18.92
2019-05-11T02:59:40.627Z,19.25
2019-05-11T03:02:12.602Z,21.20
2019-05-11T03:04:44.141Z,22.67
2019-05-11T03:07:15.715Z,13.70
2019-05-11T03:09:47.557Z,14.03
2019-05-11T03:12:19.619Z,16.50
2019-05-11T03:14:51.173Z,17.30
2019-05-11T03:17:24.463Z,13.70
2019-05-11T03:19:55.814Z,17.48
2019-05-11T03:22:27.463Z,19.50
2019-05-11T03:24:58.919Z,15.65
2019-05-11T03:27:30.591Z,21.00
2019-05-11T03:30:02.555Z,12.68
2019-05-11T03:32:36.030Z,27.27
2019-05-11T03:35:07.888Z,25.57
2019-05-11T03:37:39.658Z,18.70
2019-05-11T03:40:12.021Z,40.12
2019-05-11T03:42:43.877Z,22.20
2019-05-11T03:45:16.066Z,23.62
2019-05-11T03:47:47.699Z,17.65
2019-05-11T03:50:19.565Z,38.40
2019-05-11T03:52:51.629Z,28.00
2019-05-11T03:55:23.085Z,26.93
2019-05-11T03:57:55.658Z,26.77
2019-05-11T04:00:27.415Z,19.77
2019-05-11T04:02:59.476Z,27.87
2019-05-11T04:05:31.022Z,30.60
2019-05-11T04:08:02.578Z,41.80
2019-05-11T04:10:34.339Z,43.95
2019-05-11T04:13:05.886Z,42.40
2019-05-11T04:15:37.566Z,37.65
2019-05-11T04:18:09.094Z,32.55
2019-05-11T04:20:40.954Z,27.45
2019-05-11T04:23:13.017Z,27.98
2019-05-11T04:25:44.880Z,26.42
2019-05-11T04:28:16.652Z,25.12
2019-05-11T04:30:48.398Z,26.93
2019-05-11T04:33:19.947Z,32.55
2019-05-11T04:35:51.604Z,25.48
2019-05-11T04:38:23.462Z,24.80
2019-05-11T04:40:55.114Z,28.50
2019-05-11T04:43:27.008Z,29.25
2019-05-11T04:45:58.636Z,27.07
2019-05-11T04:48:30.275Z,30.60
2019-05-11T04:51:02.041Z,25.65
2019-05-11T04:56:04.235Z,51.65
2019-05-11T05:01:06.614Z,43.90
2019-05-11T05:03:41.046Z,32.28
2019-05-11T05:06:22.202Z,47.83
2019-05-11T05:08:44.658Z,23.52
2019-05-11T05:11:16.715Z,32.75
2019-05-11T05:13:48.370Z,30.45
2019-05-11T05:16:20.231Z,30.10
2019-05-11T05:18:51.781Z,39.40
2019-05-11T05:21:23.435Z,38.40
2019-05-11T05:26:25.319Z,27.15
2019-05-11T05:28:56.867Z,43.17
2019-05-11T05:31:28.727Z,20.77
2019-05-11T05:34:01.446Z,40.28
2019-05-11T05:36:33.061Z,30.30
2019-05-11T05:39:08.901Z,32.93
2019-05-11T05:41:40.674Z,36.83
2019-05-11T05:44:13.144Z,35.20
2019-05-11T05:46:44.694Z,39.08
2019-05-11T05:51:46.897Z,39.75
2019-05-11T05:54:18.842Z,59.35
2019-05-11T05:56:50.499Z,31.52
2019-05-11T05:59:22.562Z,20.85
2019-05-11T06:01:54.383Z,32.15
2019-05-11T06:04:25.977Z,36.45
2019-05-11T06:06:57.829Z,26.50
2019-05-11T06:09:29.800Z,25.52
2019-05-11T06:12:01.579Z,28.12
2019-05-11T06:14:33.433Z,32.98
2019-05-11T06:17:04.964Z,29.90
2019-05-11T06:19:36.925Z,33.28
2019-05-11T06:22:08.692Z,24.72
2019-05-11T06:24:40.132Z,28.62
2019-05-11T06:29:42.112Z,33.35
2019-05-11T06:32:13.864Z,31.48
2019-05-11T06:34:45.421Z,33.78
2019-05-11T06:39:49.139Z,20.72
2019-05-11T06:42:21.003Z,19.05
2019-05-11T06:44:52.650Z,24.85
2019-05-11T06:47:25.847Z,17.82
2019-05-11T06:49:57.540Z,16.80
2019-05-11T06:52:29.575Z,20.90
2019-05-11T06:55:01.115Z,19.17
2019-05-11T06:57:32.873Z,20.68
2019-05-11T07:00:05.827Z,15.20
2019-05-11T07:02:38.027Z,19.52
2019-05-11T07:05:10.090Z,13.80
2019-05-11T07:07:47.412Z,12.05
2019-05-11T07:10:15.676Z,12.37
2019-05-11T07:12:47.246Z,12.93
2019-05-11T07:15:18.759Z,8.63
2019-05-11T07:17:50.511Z,10.18
2019-05-11T07:20:23.399Z,15.18
2019-05-11T07:22:55.054Z,13.90
2019-05-11T07:25:26.914Z,19.40
2019-05-11T07:27:58.568Z,13.68
2019-05-11T07:30:30.222Z,18.07
2019-05-11T07:33:02.389Z,6.97
2019-05-11T07:35:34.553Z,12.58
2019-05-11T07:38:08.353Z,13.38
2019-05-11T07:40:39.509Z,15.53
2019-05-11T07:43:11.879Z,6.37
2019-05-11T07:45:43.532Z,13.18
2019-05-11T07:48:15.403Z,14.87
2019-05-11T07:50:48.021Z,14.00
2019-05-11T07:53:19.933Z,13.18
2019-05-11T07:55:51.591Z,13.53
2019-05-11T08:00:53.864Z,8.70
2019-05-11T08:03:28.183Z,4.25
2019-05-11T08:06:02.757Z,6.55
2019-05-11T08:08:33.132Z,4.53
2019-05-11T08:11:07.942Z,9.65
2019-05-11T08:13:39.018Z,7.78
2019-05-11T08:16:11.578Z,10.05
2019-05-11T08:18:43.437Z,5.95
2019-05-11T08:21:17.692Z,5.10
2019-05-11T08:23:49.006Z,16.50
2019-05-11T08:26:20.661Z,11.75
2019-05-11T08:28:52.624Z,7.70
2019-05-11T08:31:24.291Z,11.75
2019-05-11T08:33:58.234Z,11.45
2019-05-11T08:36:29.288Z,9.55
2019-05-11T08:39:00.777Z,6.70
2019-05-11T08:41:32.531Z,7.95
2019-05-11T08:44:04.373Z,29.30
2019-05-11T08:46:38.374Z,13.93
2019-05-11T08:49:09.345Z,13.45
2019-05-11T08:51:41.315Z,22.15
2019-05-11T08:54:13.163Z,10.93
2019-05-11T08:56:44.713Z,46.58
2019-05-11T08:59:18.639Z,55.75
2019-05-11T09:01:50.481Z,22.62
2019-05-11T09:04:22.043Z,15.58
2019-05-11T09:06:53.894Z,17.60
2019-05-11T09:09:25.657Z,12.53
2019-05-11T09:11:58.922Z,20.62
2019-05-11T09:14:30.636Z,15.95
2019-05-11T09:17:02.307Z,15.03
2019-05-11T09:19:34.050Z,11.12
2019-05-11T09:22:08.085Z,12.82
2019-05-11T09:24:39.169Z,8.48
2019-05-11T09:27:11.024Z,8.15
2019-05-11T09:29:42.580Z,12.45
2019-05-11T09:32:14.440Z,10.65
2019-05-11T09:34:48.318Z,10.55
2019-05-11T09:37:19.489Z,9.25
2019-05-11T09:39:51.146Z,10.15
2019-05-11T09:42:23.003Z,5.95
2019-05-11T09:44:54.354Z,7.22
2019-05-11T09:47:27.945Z,12.40
2019-05-11T09:49:59.196Z,13.03
2019-05-11T09:52:32.713Z,19.42
2019-05-11T09:55:05.476Z,15.00
2019-05-11T09:57:38.800Z,15.00
2019-05-11T10:00:10.626Z,16.85
2019-05-11T10:02:42.696Z,19.15
2019-05-11T10:05:14.556Z,13.98
2019-05-11T10:07:48.365Z,6.53
2019-05-11T10:10:19.296Z,12.10
2019-05-11T10:12:53.098Z,12.30
2019-05-11T10:15:24.670Z,13.18
2019-05-11T10:17:58.221Z,17.92
2019-05-11T10:20:29.411Z,11.28
2019-05-11T10:23:01.257Z,20.52
2019-05-11T10:25:32.662Z,12.53
2019-05-11T10:28:04.255Z,5.40
2019-05-11T10:30:38.414Z,13.25
2019-05-11T10:33:09.414Z,7.33
2019-05-11T10:35:41.999Z,10.58
2019-05-11T10:38:15.082Z,27.70
2019-05-11T10:40:48.017Z,15.53
2019-05-11T10:43:20.640Z,11.73
2019-05-11T10:48:22.703Z,15.73
2019-05-11T10:50:54.480Z,16.95
2019-05-11T10:53:27.886Z,15.80
2019-05-11T10:55:59.425Z,15.30
2019-05-11T10:58:31.286Z,18.62
2019-05-11T11:01:03.072Z,21.75
2019-05-11T11:03:35.109Z,13.70
2019-05-11T11:06:08.450Z,14.18
2019-05-11T11:08:40.181Z,24.98
2019-05-11T11:11:11.711Z,25.52
2019-05-11T11:13:43.373Z,25.80
2019-05-11T11:16:14.917Z,18.73
2019-05-11T11:18:48.570Z,20.00
2019-05-11T11:21:22.776Z,21.60
2019-05-11T11:23:53.163Z,19.48
2019-05-11T11:26:25.015Z,19.32
2019-05-11T11:28:58.125Z,33.98
2019-05-11T11:31:29.762Z,36.08
2019-05-11T11:34:01.224Z,28.75
2019-05-11T11:36:32.871Z,19.02
2019-05-11T11:39:08.366Z,24.55
2019-05-11T11:41:39.964Z,18.67
2019-05-11T11:44:12.340Z,24.10
2019-05-11T11:46:52.159Z,23.47
2019-05-11T11:49:18.795Z,20.50
2019-05-11T11:51:50.915Z,17.92
2019-05-11T11:54:23.004Z,16.20
2019-05-11T11:56:54.708Z,13.22
2019-05-11T12:01:58.103Z,29.42
2019-05-11T12:04:30.083Z,18.10
2019-05-11T12:07:01.939Z,17.32
2019-05-11T12:09:33.714Z,15.98
2019-05-11T12:12:07.851Z,26.87
2019-05-11T12:14:39.061Z,15.28
2019-05-11T12:17:11.236Z,25.80
2019-05-11T12:19:42.879Z,20.10
2019-05-11T12:22:14.334Z,20.08
2019-05-11T12:24:48.108Z,16.95
2019-05-11T12:27:19.693Z,16.57
2019-05-11T12:29:51.550Z,23.83
2019-05-11T12:32:27.679Z,18.15
2019-05-11T12:34:59.570Z,35.40
2019-05-11T12:37:31.328Z,24.65
2019-05-11T12:40:04.003Z,33.38
2019-05-11T12:42:38.060Z,27.00
2019-05-11T12:45:10.133Z,30.85
2019-05-11T12:47:41.530Z,21.50
2019-05-11T12:50:13.491Z,20.97
2019-05-11T12:52:47.547Z,20.20
2019-05-11T12:55:18.541Z,26.00
2019-05-11T12:57:50.198Z,24.82
2019-05-11T13:00:22.258Z,24.82
2019-05-11T13:02:54.323Z,32.38
2019-05-11T13:05:25.778Z,26.48
2019-05-11T13:07:58.621Z,26.35
2019-05-11T13:10:30.417Z,16.73
2019-05-11T13:13:02.796Z,21.35
2019-05-11T13:15:34.419Z,21.40
2019-05-11T13:18:08.377Z,34.40
2019-05-11T13:20:41.640Z,18.95
2019-05-11T13:23:13.399Z,24.35
2019-05-11T13:25:45.056Z,18.52
2019-05-11T13:28:17.966Z,25.50
2019-05-11T13:30:49.599Z,19.62
2019-05-11T13:35:51.777Z,25.88
2019-05-11T13:38:23.533Z,36.20
2019-05-11T13:40:56.116Z,32.38
2019-05-11T13:43:30.120Z,22.62
2019-05-11T13:46:01.883Z,22.95
2019-05-11T13:48:33.748Z,19.98
2019-05-11T13:51:05.496Z,16.45
2019-05-11T13:53:37.790Z,19.10
2019-05-11T13:56:09.418Z,23.45
2019-05-11T13:58:40.976Z,23.57
2019-05-11T14:01:13.245Z,19.80
2019-05-11T14:03:44.734Z,18.67
2019-05-11T14:06:18.490Z,20.10
2019-05-11T14:08:49.551Z,33.15
2019-05-11T14:11:21.291Z,30.52
2019-05-11T14:13:53.157Z,26.68
2019-05-11T14:16:27.136Z,28.65
2019-05-11T14:18:58.417Z,29.45
2019-05-11T14:21:30.372Z,31.57
2019-05-11T14:24:01.922Z,31.33
2019-05-11T14:26:33.579Z,30.08
2019-05-11T14:29:05.546Z,22.07
2019-05-11T14:31:38.650Z,25.27
2019-05-11T14:34:10.590Z,21.75
2019-05-11T14:36:42.446Z,19.50
2019-05-11T14:39:14.106Z,19.30
2019-05-11T14:41:48.561Z,35.20
2019-05-11T14:44:19.067Z,19.92
2019-05-11T14:46:50.614Z,19.85
2019-05-11T14:49:22.363Z,20.23
2019-05-11T14:51:54.639Z,16.73
2019-05-11T14:54:28.655Z,23.70
2019-05-11T14:56:59.889Z,22.25
2019-05-11T14:59:31.565Z,18.77
2019-05-11T15:02:08.679Z,17.25
2019-05-11T15:04:40.072Z,17.02
2019-05-11T15:07:12.045Z,27.85
2019-05-11T15:09:43.693Z,19.62
2019-05-11T15:12:15.451Z,19.75
2019-05-11T15:17:19.279Z,14.40
2019-05-11T15:19:51.236Z,20.43
2019-05-11T15:22:23.097Z,20.48
2019-05-11T15:27:25.071Z,18.07
2019-05-11T15:29:58.812Z,13.53
2019-05-11T15:32:29.931Z,17.45
2019-05-11T15:35:01.571Z,14.75
2019-05-11T15:37:34.562Z,21.12
2019-05-11T15:40:14.918Z,16.52
2019-05-11T15:42:48.673Z,18.20
2019-05-11T15:45:21.620Z,19.92
2019-05-11T15:47:53.283Z,22.42
2019-05-11T15:50:25.123Z,17.70
2019-05-11T15:52:58.223Z,18.00
2019-05-11T15:55:30.070Z,19.65
2019-05-11T15:58:01.826Z,15.00
2019-05-11T16:03:04.132Z,24.02
2019-05-11T16:05:35.969Z,24.40
2019-05-11T16:08:08.652Z,11.30
2019-05-11T16:10:40.307Z,15.15
2019-05-11T16:13:12.265Z,12.20
2019-05-11T16:15:44.066Z,17.67
2019-05-11T16:18:18.675Z,20.97
2019-05-11T16:20:52.645Z,24.77
2019-05-11T16:23:28.410Z,11.73
2019-05-11T16:26:00.069Z,11.73
2019-05-11T16:28:31.923Z,20.72
2019-05-11T16:31:03.786Z,12.00
2019-05-11T16:33:36.678Z,13.48
2019-05-11T16:36:09.208Z,12.10
2019-05-11T16:38:42.805Z,13.50
2019-05-11T16:41:17.858Z,12.90
2019-05-11T16:43:49.635Z,10.65
2019-05-11T16:46:21.494Z,11.65
2019-05-11T16:48:53.354Z,16.67
2019-05-11T16:51:24.923Z,14.30
2019-05-11T16:53:58.776Z,23.87
2019-05-11T16:56:30.477Z,24.80
2019-05-11T16:59:02.543Z,18.70
2019-05-11T17:01:34.557Z,17.15
2019-05-11T17:04:06.048Z,21.35
2019-05-11T17:06:38.577Z,20.30
2019-05-11T17:09:10.497Z,38.95
2019-05-11T17:11:42.555Z,23.25
2019-05-11T17:14:14.131Z,30.43
2019-05-11T17:16:48.063Z,29.25
2019-05-11T17:19:19.974Z,25.52
2019-05-11T17:21:52.146Z,23.30
2019-05-11T17:24:23.892Z,24.77
2019-05-11T17:26:58.231Z,27.65
2019-05-11T17:29:29.260Z,29.45
2019-05-11T17:32:00.920Z,33.35
2019-05-11T17:34:32.801Z,37.93
2019-05-11T17:37:08.365Z,39.03
2019-05-11T17:39:39.357Z,29.37
2019-05-11T17:42:11.420Z,30.80
2019-05-11T17:44:42.981Z,28.38
2019-05-11T17:47:14.944Z,28.77
2019-05-11T17:49:57.350Z,27.73
2019-05-11T17:52:20.149Z,27.75
2019-05-11T17:54:54.947Z,35.73
2019-05-11T17:57:24.841Z,30.23
2019-05-11T17:59:57.942Z,29.98
2019-05-11T18:02:29.987Z,27.93
2019-05-11T18:05:01.441Z,26.57
2019-05-11T18:07:34.211Z,32.23
2019-05-11T18:10:08.208Z,30.65
2019-05-11T18:12:39.895Z,25.70
2019-05-11T18:15:11.925Z,32.60
2019-05-11T18:17:43.381Z,26.35
2019-05-11T18:20:18.649Z,30.02
2019-05-11T18:22:49.499Z,26.35
2019-05-11T18:25:21.227Z,22.48
2019-05-11T18:27:52.987Z,25.48
2019-05-11T18:30:24.636Z,23.70
2019-05-11T18:32:59.226Z,20.08
2019-05-11T18:35:29.694Z,22.40
2019-05-11T18:38:01.347Z,22.85
2019-05-11T18:40:33.106Z,23.98
2019-05-11T18:43:05.170Z,23.32
2019-05-11T18:45:38.297Z,22.45
2019-05-11T18:48:10.225Z,22.13
2019-05-11T18:50:41.882Z,24.30
2019-05-11T18:53:14.047Z,35.55
2019-05-11T18:55:45.597Z,22.73
2019-05-11T18:58:18.434Z,24.20
2019-05-11T19:00:50.715Z,25.25
2019-05-11T19:03:22.919Z,20.70
2019-05-11T19:05:57.577Z,22.48
2019-05-11T19:08:28.226Z,21.65
2019-05-11T19:10:59.855Z,23.38
2019-05-11T19:13:31.782Z,29.82
2019-05-11T19:16:03.643Z,24.80
2019-05-11T19:18:35.609Z,27.22
2019-05-11T19:21:09.206Z,29.00
2019-05-11T19:23:40.145Z,25.68
2019-05-11T19:26:11.800Z,21.65
2019-05-11T19:28:43.455Z,24.15
2019-05-11T19:31:15.112Z,30.12
2019-05-11T19:33:48.951Z,27.58
2019-05-11T19:36:20.260Z,37.28
2019-05-11T19:38:51.918Z,42.83
2019-05-11T19:41:23.674Z,57.30
2019-05-11T19:43:57.691Z,63.13
2019-05-11T19:46:28.733Z,55.08
2019-05-11T19:49:00.477Z,44.60
2019-05-11T19:51:32.339Z,41.53
2019-05-11T19:54:03.993Z,37.95
2019-05-11T19:56:37.798Z,40.28
2019-05-11T19:59:08.951Z,64.85
2019-05-11T20:01:43.874Z,40.40
2019-05-11T20:04:15.430Z,45.43
2019-05-11T20:06:47.936Z,43.87
2019-05-11T20:09:19.558Z,41.13
2019-05-11T20:11:51.314Z,55.90
2019-05-11T20:14:22.760Z,50.38
2019-05-11T20:16:54.324Z,61.58
2019-05-11T20:19:27.852Z,68.20
2019-05-11T20:21:59.159Z,63.10
2019-05-11T20:24:30.813Z,50.98
2019-05-11T20:27:02.471Z,56.37
2019-05-11T20:29:35.563Z,55.00
2019-05-11T20:34:39.481Z,60.43
2019-05-11T20:37:11.136Z,53.87
2019-05-11T20:39:43.003Z,51.50
2019-05-11T20:44:45.178Z,47.20
2019-05-11T20:47:17.849Z,50.17
2019-05-11T20:49:49.412Z,42.93
2019-05-11T20:52:21.379Z,41.15
2019-05-11T20:54:52.825Z,39.70
2019-05-11T20:57:24.275Z,42.00
2019-05-11T20:59:57.568Z,40.10
2019-05-11T21:02:29.322Z,35.10
2019-05-11T21:05:00.975Z,43.55
2019-05-11T21:10:03.158Z,30.27
2019-05-11T21:12:35.024Z,28.32
2019-05-11T21:15:08.566Z,32.03
2019-05-11T21:21:06.513Z,34.58
2019-05-11T21:23:40.526Z,34.85
2019-05-11T21:26:11.154Z,36.08
2019-05-11T21:28:48.514Z,35.75
2019-05-11T21:31:19.074Z,31.75
2019-05-11T21:33:50.656Z,25.15
2019-05-11T21:36:22.176Z,30.57
2019-05-11T21:38:53.830Z,24.82
2019-05-11T21:41:30.492Z,21.77
2019-05-11T21:43:58.781Z,22.52
2019-05-11T21:49:01.983Z,26.25
2019-05-11T21:54:04.364Z,20.40
2019-05-11T21:56:40.553Z,23.25
2019-05-11T21:59:09.848Z,21.17
2019-05-11T22:01:41.695Z,25.82
2019-05-11T22:04:13.554Z,23.57
2019-05-11T22:06:45.207Z,21.25
2019-05-11T22:09:18.562Z,22.10
2019-05-11T22:11:50.172Z,24.85
2019-05-11T22:14:21.811Z,22.52
2019-05-11T22:16:53.572Z,22.13
2019-05-11T22:21:55.546Z,23.70
2019-05-11T22:24:28.290Z,30.23
2019-05-11T22:27:00.314Z,34.92
2019-05-11T22:29:31.951Z,33.18
2019-05-11T22:32:03.704Z,36.68
2019-05-11T22:34:37.833Z,38.33
2019-05-11T22:37:09.472Z,23.22
2019-05-11T22:39:40.922Z,23.12
2019-05-11T22:42:12.679Z,24.85
2019-05-11T22:44:44.743Z,29.60
2019-05-11T22:47:17.880Z,32.85
2019-05-11T22:49:49.775Z,30.50
2019-05-11T22:52:32.983Z,30.95
2019-05-11T22:54:55.557Z,36.68
2019-05-11T22:57:27.313Z,39.30
2019-05-11T23:00:01.575Z,36.15
2019-05-11T23:02:34.201Z,44.03
2019-05-11T23:05:08.474Z,37.73
2019-05-11T23:07:41.340Z,45.73
2019-05-11T23:10:13.271Z,88.33
2019-05-11T23:12:45.030Z,131.97
2019-05-11T23:15:18.527Z,295.63
2019-05-11T23:17:50.289Z,306.10
2019-05-11T23:20:22.246Z,429.60
2019-05-11T23:22:59.070Z,403.98
2019-05-11T23:25:28.748Z,237.65
2019-05-11T23:27:59.978Z,201.62
2019-05-11T23:30:31.731Z,309.25
2019-05-11T23:33:03.491Z,298.32
2019-05-11T23:35:35.144Z,359.32
2019-05-11T23:38:07.008Z,302.02
2019-05-11T23:40:38.772Z,264.12
2019-05-11T23:43:10.418Z,123.22
2019-05-11T23:48:12.613Z,173.28
2019-05-11T23:50:45.892Z,88.67
2019-05-11T23:53:19.599Z,132.20
2019-05-11T23:55:51.254Z,177.27
2019-05-11T23:58:22.915Z,186.57
